UAL Aberdeen — PBHZ — position and weather

sailwx.info

Track history (hours):
 
Tides and Currents Weather Stations Pressure Air Temp Water Temp Dewpoint Dewpoint Depression Visibility Wind Speed Wind Dir Waves Ship Positions

UAL Aberdeen

Last reported at 2016-Jun-28 07:33 UTC. Time now 2016-Jun-28 08:00 UTC.
Position N 51°13' E 001°37'.

Length 129 m; beam 17 m.

Type: Cargo ship. MMSI: 244093964.

Date/timePositionNaut miles runAvg speedWind from/ knotsBaromVisibWave heightAir tempDewpointWater temp
2016-Jun-28 07:33N 51°13' E 001°37'1211.8
2016-Jun-28 06:33N 51°01' E 001°34'2612.8
2016-Jun-28 04:33N 50°39' E 001°15'3712.2
2016-Jun-28 01:33N 50°23' E 000°23'1312.7
2016-Jun-28 00:33N 50°19' E 000°04'1212.0
2016-Jun-27 23:33N 50°16' W 000°14'1111.5
2016-Jun-27 22:33N 50°13' W 000°32'1111.1
2016-Jun-27 21:34N 50°11' W 000°49'1010.4
2016-Jun-27 20:33N 50°08' W 001°04'10 9.5
2016-Jun-27 19:33N 50°06' W 001°19'9 9.0
2016-Jun-27 18:32N 50°03' W 001°32'9 9.4
2016-Jun-27 17:33N 50°01' W 001°46'1010.5
2016-Jun-27 16:33N 49°58' W 002°02'1211.7
2016-Jun-27 15:33N 49°55' W 002°20'1212.4
2016-Jun-27 14:32N 49°52' W 002°39'1212.7
2016-Jun-27 13:33N 49°48' W 002°57'1312.8
2016-Jun-27 12:33N 49°41' W 003°14'1312.9
2016-Jun-27 11:33N 49°34' W 003°31'7512.4
2016-Jun-27 05:34N 48°57' W 005°09'1311.3
2016-Jun-27 04:27N 48°50' W 005°26'3210.5
2016-Jun-27 01:22N 48°24' W 005°55'13 9.3
2016-Jun-27 00:00N 48°12' W 006°00'714.4 999 / 21021.7 2.2 1.015.512.8
2016-Jun-26 23:29N 48°07' W 006°08'13511.8
2016-Jun-26 12:00N 46°06' W 007°36'12810.7 010 / 31025.210.8 0.518.916.3
2016-Jun-26 00:00N 44°12' W 009°00'6010.0 010 / 111023.910.8 1.016.814.0
2016-Jun-25 18:00N 43°18' W 009°36'255 8.9 200 / 251020.510.8 3.018.0
2016-Jun-24 13:10N 39°03' W 009°51'610.2
2016-Jun-24 12:33N 38°57' W 009°51'1010.2
2016-Jun-24 11:33N 38°46' W 009°52'1010.2
2016-Jun-24 10:33N 38°37' W 009°48'1010.0
2016-Jun-24 09:33N 38°27' W 009°46'20 9.9
2016-Jun-24 07:33N 38°07' W 009°40'2113.5
2016-Jun-24 06:00N 37°48' W 009°30'10 6.7 180 / 151016.010.8 1.019.0
2016-Jun-24 04:33N 37°38' W 009°32'10 9.7
2016-Jun-24 03:33N 37°29' W 009°30'11 9.2
2016-Jun-24 02:22N 37°18' W 009°27'8 9.5
2016-Jun-24 01:33N 37°11' W 009°24'1110.1
2016-Jun-24 00:30N 37°01' W 009°21'714.3
2016-Jun-24 00:00N 36°54' W 009°18'6 6.9 999 / 31018.610.8 0.518.715.0
2016-Jun-23 23:10N 36°49' W 009°14'6 9.7
2016-Jun-23 22:31N 36°45' W 009°09'10 9.9
2016-Jun-23 21:29N 36°41' W 008°57'2110.2
2016-Jun-23 19:24N 36°35' W 008°31'910.6
2016-Jun-23 18:30N 36°31' W 008°20'713.4
2016-Jun-23 18:00N 36°30' W 008°12'3 6.6 999 / 41016.010.8 23.0
2016-Jun-23 17:33N 36°28' W 008°09'1010.1
2016-Jun-23 16:33N 36°25' W 007°57'10 9.8
2016-Jun-23 15:31N 36°22' W 007°45'8410.2
2016-Jun-23 07:21N 35°58' W 006°06'17 9.2
2016-Jun-23 05:33N 35°57' W 005°46'9 9.6
2016-Jun-23 04:33N 35°58' W 005°34'9 9.2
2016-Jun-23 03:34N 35°60' W 005°23'7 7.0
2016-Jun-23 02:34N 35°54' W 005°19'1 0.6
2016-Jun-23 01:31N 35°54' W 005°19'0 0.0
2016-Jun-23 00:31N 35°54' W 005°19'0 0.0
2016-Jun-22 23:31N 35°54' W 005°19'0 0.4
2016-Jun-22 22:34N 35°54' W 005°19'3 2.7
2016-Jun-22 21:34N 35°56' W 005°18'4 3.9
2016-Jun-22 20:33N 35°56' W 005°13'21310.4
2016-Jun-22 00:00N 36°36' W 000°54'43 9.6 090 / 71018.110.8 1.019.815.9
2016-Jun-21 19:32N 36°43' W 000°02'1511.4
2016-Jun-21 18:13N 36°46' E 000°17'418.7
2016-Jun-21 18:00N 36°42' E 000°18'819.1 260 / 201017.510.8 1.522.0
2016-Jun-21 17:33N 36°47' E 000°26'1211.8
2016-Jun-21 16:31N 36°49' E 000°41'11210.7
2016-Jun-21 06:00N 37°06' E 003°00'12510.4 260 / 151021.510.8 0.520.0
2016-Jun-20 18:00N 37°18' E 005°36'296 8.2 260 / 151020.510.8 2.022.0
2016-Jun-19 06:00N 37°30' E 011°48'6210.3 130 / 151015.0 5.4 0.521.0
2016-Jun-19 00:00N 37°06' E 013°00'2011.9 030 / 71012.810.8 1.023.420.4
2016-Jun-18 22:18N 37°04' E 013°25'910.8
2016-Jun-18 21:27N 37°01' E 013°36'910.6
2016-Jun-18 20:34N 36°57' E 013°47'10 9.8
2016-Jun-18 19:34N 36°53' E 013°58'10 9.5
2016-Jun-18 18:34N 36°49' E 014°09'813.8
2016-Jun-18 18:00N 36°42' E 014°12'717.1 260 / 61011.010.8 25.0
2016-Jun-18 17:34N 36°46' E 014°20'1010.0
2016-Jun-18 16:34N 36°42' E 014°32'1110.7
2016-Jun-18 15:34N 36°38' E 014°44'1111.1
2016-Jun-18 14:33N 36°35' E 014°58'1111.2
2016-Jun-18 13:33N 36°33' E 015°11'2710.9
2016-Jun-18 11:06N 36°27' E 015°44'710.8
2016-Jun-18 10:28N 36°25' E 015°52'  
Track history (hours):
 
Tides and Currents Weather Stations Pressure Air Temp Water Temp Dewpoint Dewpoint Depression Visibility Wind Speed Wind Dir Waves Ship Positions

UAL Aberdeen

Last reported at 2016-Jun-28 07:33 UTC. Time now 2016-Jun-28 08:00 UTC.
Position N 51°13' E 001°37'.

Length 129 m; beam 17 m.

Type: Cargo ship. MMSI: 244093964.

Date/timePositionNaut miles runAvg speedWind from/ knotsBaromVisibWave heightAir tempDewpointWater temp
2016-Jun-28 07:33N 51°13' E 001°37'1211.8
2016-Jun-28 06:33N 51°01' E 001°34'2612.8
2016-Jun-28 04:33N 50°39' E 001°15'3712.2
2016-Jun-28 01:33N 50°23' E 000°23'1312.7
2016-Jun-28 00:33N 50°19' E 000°04'1212.0
2016-Jun-27 23:33N 50°16' W 000°14'1111.5
2016-Jun-27 22:33N 50°13' W 000°32'1111.1
2016-Jun-27 21:34N 50°11' W 000°49'1010.4
2016-Jun-27 20:33N 50°08' W 001°04'10 9.5
2016-Jun-27 19:33N 50°06' W 001°19'9 9.0
2016-Jun-27 18:32N 50°03' W 001°32'9 9.4
2016-Jun-27 17:33N 50°01' W 001°46'1010.5
2016-Jun-27 16:33N 49°58' W 002°02'1211.7
2016-Jun-27 15:33N 49°55' W 002°20'1212.4
2016-Jun-27 14:32N 49°52' W 002°39'1212.7
2016-Jun-27 13:33N 49°48' W 002°57'1312.8
2016-Jun-27 12:33N 49°41' W 003°14'1312.9
2016-Jun-27 11:33N 49°34' W 003°31'7512.4
2016-Jun-27 05:34N 48°57' W 005°09'1311.3
2016-Jun-27 04:27N 48°50' W 005°26'3210.5
2016-Jun-27 01:22N 48°24' W 005°55'13 9.3
2016-Jun-27 00:00N 48°12' W 006°00'714.4 999 / 21021.7 2.2 1.015.512.8
2016-Jun-26 23:29N 48°07' W 006°08'13511.8
2016-Jun-26 12:00N 46°06' W 007°36'12810.7 010 / 31025.210.8 0.518.916.3
2016-Jun-26 00:00N 44°12' W 009°00'6010.0 010 / 111023.910.8 1.016.814.0
2016-Jun-25 18:00N 43°18' W 009°36'255 8.9 200 / 251020.510.8 3.018.0
2016-Jun-24 13:10N 39°03' W 009°51'610.2
2016-Jun-24 12:33N 38°57' W 009°51'1010.2
2016-Jun-24 11:33N 38°46' W 009°52'1010.2
2016-Jun-24 10:33N 38°37' W 009°48'1010.0
2016-Jun-24 09:33N 38°27' W 009°46'20 9.9
2016-Jun-24 07:33N 38°07' W 009°40'2113.5
2016-Jun-24 06:00N 37°48' W 009°30'10 6.7 180 / 151016.010.8 1.019.0
2016-Jun-24 04:33N 37°38' W 009°32'10 9.7
2016-Jun-24 03:33N 37°29' W 009°30'11 9.2
2016-Jun-24 02:22N 37°18' W 009°27'8 9.5
2016-Jun-24 01:33N 37°11' W 009°24'1110.1
2016-Jun-24 00:30N 37°01' W 009°21'714.3
2016-Jun-24 00:00N 36°54' W 009°18'6 6.9 999 / 31018.610.8 0.518.715.0
2016-Jun-23 23:10N 36°49' W 009°14'6 9.7
2016-Jun-23 22:31N 36°45' W 009°09'10 9.9
2016-Jun-23 21:29N 36°41' W 008°57'2110.2
2016-Jun-23 19:24N 36°35' W 008°31'910.6
2016-Jun-23 18:30N 36°31' W 008°20'713.4
2016-Jun-23 18:00N 36°30' W 008°12'3 6.6 999 / 41016.010.8 23.0
2016-Jun-23 17:33N 36°28' W 008°09'1010.1
2016-Jun-23 16:33N 36°25' W 007°57'10 9.8
2016-Jun-23 15:31N 36°22' W 007°45'8410.2
2016-Jun-23 07:21N 35°58' W 006°06'17 9.2
2016-Jun-23 05:33N 35°57' W 005°46'9 9.6
2016-Jun-23 04:33N 35°58' W 005°34'9 9.2
2016-Jun-23 03:34N 35°60' W 005°23'7 7.0
2016-Jun-23 02:34N 35°54' W 005°19'1 0.6
2016-Jun-23 01:31N 35°54' W 005°19'0 0.0
2016-Jun-23 00:31N 35°54' W 005°19'0 0.0
2016-Jun-22 23:31N 35°54' W 005°19'0 0.4
2016-Jun-22 22:34N 35°54' W 005°19'3 2.7
2016-Jun-22 21:34N 35°56' W 005°18'4 3.9
2016-Jun-22 20:33N 35°56' W 005°13'21310.4
2016-Jun-22 00:00N 36°36' W 000°54'43 9.6 090 / 71018.110.8 1.019.815.9
2016-Jun-21 19:32N 36°43' W 000°02'1511.4
2016-Jun-21 18:13N 36°46' E 000°17'418.7
2016-Jun-21 18:00N 36°42' E 000°18'819.1 260 / 201017.510.8 1.522.0
2016-Jun-21 17:33N 36°47' E 000°26'1211.8
2016-Jun-21 16:31N 36°49' E 000°41'11210.7
2016-Jun-21 06:00N 37°06' E 003°00'12510.4 260 / 151021.510.8 0.520.0
2016-Jun-20 18:00N 37°18' E 005°36'296 8.2 260 / 151020.510.8 2.022.0
2016-Jun-19 06:00N 37°30' E 011°48'6210.3 130 / 151015.0 5.4 0.521.0
2016-Jun-19 00:00N 37°06' E 013°00'2011.9 030 / 71012.810.8 1.023.420.4
2016-Jun-18 22:18N 37°04' E 013°25'910.8
2016-Jun-18 21:27N 37°01' E 013°36'910.6
2016-Jun-18 20:34N 36°57' E 013°47'10 9.8
2016-Jun-18 19:34N 36°53' E 013°58'10 9.5
2016-Jun-18 18:34N 36°49' E 014°09'813.8
2016-Jun-18 18:00N 36°42' E 014°12'717.1 260 / 61011.010.8 25.0
2016-Jun-18 17:34N 36°46' E 014°20'1010.0
2016-Jun-18 16:34N 36°42' E 014°32'1110.7
2016-Jun-18 15:34N 36°38' E 014°44'1111.1
2016-Jun-18 14:33N 36°35' E 014°58'1111.2
2016-Jun-18 13:33N 36°33' E 015°11'2710.9
2016-Jun-18 11:06N 36°27' E 015°44'710.8
2016-Jun-18 10:28N 36°25' E 015°52'  

Dump ship's entire track history